Главная страница
METAR-TAF:

METAR-TAF

Аэропорты :

Ларнака, Кипр

широта: 34-53N, долгота: 033-38E, высота над уровнем моря: 2 м

Текущие метеонаблюдения

Эта сводка был подготовлена 28 минут назад, в 11:30 UTC
Ветер 20 Узел от юго-западный
Температура 30°C
Влажность 52%
Давление 1013 hPa
Видимость 10 км и более
небольшая облачность на высоте 5000 фута

METAR: LCLK 211130Z 22020KT 9999 FEW050 30/19 Q1013 NOSIG

Время: 14:58 (11:58 UTC)

Прогноз

Эта сводка был подготовлена 28 минут назад, в 11:30 UTC
Прогноз действительный с 21-го 12 UTC до 22-го 12 UTC
Ветер 20 Узел от юго-западный
Видимость 10 км и более
небольшая облачность на высоте 2000 фута
изменения
С 21-го 17 UTC до 21-го 19 UTC
Ветер 8 Узел от западно-северо-западный
изменения
С 22-го 07 UTC до 22-го 10 UTC
Ветер 20 Узел от южный-юго-западный

TAF: LCLK 211130Z 2112/2212 22020KT 9999 FEW020 BECMG 2117/2119 29008KT BECMG 2207/2210 21020KT

Метеонаблюдения и прогнозы для более 4000 аэропортов (сводки METAR и TAF).

Имеющиеся станции представлены на карте желтыми и красными точками.

Чтобы увидеть название станции, наведите на нее мышь.

Затем щелкните, чтобы увидеть метеонаблюдения и метеопрогнозы.

Управление картой: чтобы увеличить масштаб, щелкните зеленые кнопки с черным крестиком; чтобы уменьшить масштаб, щелкните зеленую кнопку с тире; для просмотра соседних карт щелкайте зеленые стрелки.


METAR-TAF: